KWHP/WHP METAR and TAF weather

Enter ICAO airport designator
Station Type Date Time Source
KWHP METAR 2019/02/20 17:50 UTC NOAA

KWHP 201750Z 11010G15KT 10SM OVC045 09/02 A3000


Station Type Date Time Source
KWHP Decoded METAR 2019/02/20 17:50 UTC NOAA

Los Angeles, Whiteman Airport, CA, United States (KWHP) 34-15N 118-24W
Feb 20, 2019 - 12:50 PM EST / 2019.02.20 1750 UTC
Wind: from the ESE (110 degrees) at 12 MPH (10 KT) gusting to 17 MPH (15 KT):0
Visibility: 10 mile(s):0
Sky conditions: overcast
Temperature: 48 F (9 C)
Dew Point: 35 F (2 C)
Relative Humidity: 61%
Pressure (altimeter): 30 in. Hg (1015 hPa)
ob: KWHP 201750Z 11010G15KT 10SM OVC045 09/02 A3000
cycle: 18

Station Type Date Time Source
KWHP TAF UTC NOAA

Error!


Example: see airport list